createdAt,value
2022-08-06T00:00:02.941Z,101642.21
2022-08-06T00:02:31.222Z,101642.72
2022-08-06T00:05:03.806Z,101650.14
2022-08-06T00:07:35.915Z,101655.94
2022-08-06T00:10:13.929Z,101668.99
2022-08-06T00:12:41.751Z,101669.70
2022-08-06T00:15:13.527Z,101676.54
2022-08-06T00:17:46.359Z,101687.30
2022-08-06T00:20:26.025Z,101690.77
2022-08-06T00:23:00.864Z,101688.43
2022-08-06T00:25:28.809Z,101691.22
2022-08-06T00:28:02.207Z,101690.64
2022-08-06T00:30:36.879Z,101684.58
2022-08-06T00:33:04.762Z,101683.73
2022-08-06T00:35:31.877Z,101684.55
2022-08-06T00:37:59.838Z,101687.55
2022-08-06T00:40:31.515Z,101684.83
2022-08-06T00:43:02.470Z,101684.15
2022-08-06T00:45:38.002Z,101686.73
2022-08-06T00:48:30.844Z,101691.39
2022-08-06T00:51:01.928Z,101703.20
2022-08-06T00:53:33.976Z,101701.88
2022-08-06T00:56:08.896Z,101703.55
2022-08-06T00:58:40.014Z,101705.48
2022-08-06T01:01:17.368Z,101705.02
2022-08-06T01:03:51.552Z,101701.14
2022-08-06T01:06:54.254Z,101702.73
2022-08-06T01:09:11.071Z,101717.16
2022-08-06T01:11:40.044Z,101711.42
2022-08-06T01:14:09.986Z,101708.19
2022-08-06T01:16:49.542Z,101708.86
2022-08-06T01:19:50.443Z,101710.43
2022-08-06T01:22:54.255Z,101717.09
2022-08-06T01:25:53.186Z,101707.45
2022-08-06T01:28:46.388Z,101711.02
2022-08-06T01:31:45.820Z,101717.26
2022-08-06T01:34:25.599Z,101714.04
2022-08-06T01:37:09.783Z,101713.35
2022-08-06T01:39:54.009Z,101714.69
2022-08-06T01:42:34.820Z,101715.30
2022-08-06T01:45:09.871Z,101717.83
2022-08-06T01:47:54.654Z,101719.90
2022-08-06T01:50:29.290Z,101721.91
2022-08-06T01:53:01.128Z,101718.80
2022-08-06T01:55:56.360Z,101715.52
2022-08-06T01:58:34.455Z,101716.77
2022-08-06T02:01:07.849Z,101727.32
2022-08-06T02:03:50.014Z,101737.42
2022-08-06T02:06:34.085Z,101734.66
2022-08-06T02:09:23.234Z,101731.05
2022-08-06T02:12:16.402Z,101725.25
2022-08-06T02:14:55.113Z,101726.50
2022-08-06T02:18:03.619Z,101722.54
2022-08-06T02:20:37.461Z,101731.33
2022-08-06T02:23:10.144Z,101737.48
2022-08-06T02:25:41.454Z,101743.42
2022-08-06T02:28:11.462Z,101751.21
2022-08-06T02:30:53.543Z,101752.64
2022-08-06T02:33:20.616Z,101752.27
2022-08-06T02:36:30.528Z,101764.25
2022-08-06T02:39:12.629Z,101766.89
2022-08-06T02:41:56.801Z,101771.73
2022-08-06T02:44:45.748Z,101772.85
2022-08-06T02:47:18.499Z,101776.45
2022-08-06T02:49:56.934Z,101776.11
2022-08-06T02:52:56.327Z,101780.62
2022-08-06T02:55:34.391Z,101784.48
2022-08-06T02:58:38.731Z,101785.80
2022-08-06T03:01:21.410Z,101792.45
2022-08-06T03:03:59.463Z,101795.60
2022-08-06T03:06:34.559Z,101799.02
2022-08-06T03:09:05.738Z,101798.33
2022-08-06T03:11:36.150Z,101800.15
2022-08-06T03:14:13.194Z,101801.52
2022-08-06T03:16:58.388Z,101813.80
2022-08-06T03:19:56.277Z,101814.26
2022-08-06T03:22:35.444Z,101815.30
2022-08-06T03:25:09.827Z,101822.85
2022-08-06T03:27:43.756Z,101828.91
2022-08-06T03:30:31.419Z,101828.90
2022-08-06T03:33:28.661Z,101831.54
2022-08-06T03:36:01.230Z,101836.44
2022-08-06T03:38:35.500Z,101840.05
2022-08-06T03:41:08.054Z,101845.36
2022-08-06T03:43:55.951Z,101846.46
2022-08-06T03:46:31.693Z,101850.98
2022-08-06T03:49:04.479Z,101857.41
2022-08-06T03:51:53.088Z,101861.41
2022-08-06T03:54:33.776Z,101865.20
2022-08-06T03:57:12.123Z,101863.10
2022-08-06T03:59:59.194Z,101870.63
2022-08-06T04:02:50.568Z,101875.20
2022-08-06T04:05:25.814Z,101877.34
2022-08-06T04:07:57.686Z,101879.23
2022-08-06T04:10:33.916Z,101884.89
2022-08-06T04:13:37.951Z,101883.84
2022-08-06T04:15:56.292Z,101883.05
2022-08-06T04:18:41.716Z,101883.44
2022-08-06T04:23:07.431Z,101880.35
2022-08-06T04:24:09.962Z,101879.86
2022-08-06T04:26:40.514Z,101885.91
2022-08-06T04:29:13.544Z,101893.05
2022-08-06T04:32:13.116Z,101901.72
2022-08-06T04:34:37.414Z,101903.58
2022-08-06T04:37:24.932Z,101911.17
2022-08-06T04:39:52.748Z,101911.58
2022-08-06T04:42:21.245Z,101914.36
2022-08-06T04:44:59.251Z,101921.95
2022-08-06T04:47:41.977Z,101923.73
2022-08-06T04:50:17.718Z,101926.02
2022-08-06T04:52:50.346Z,101929.23
2022-08-06T04:55:33.463Z,101937.54
2022-08-06T04:58:11.350Z,101939.27
2022-08-06T05:00:59.591Z,101941.27
2022-08-06T05:04:06.875Z,101941.86
2022-08-06T05:06:34.846Z,101942.65
2022-08-06T05:09:22.980Z,101951.05
2022-08-06T05:12:07.019Z,101962.85
2022-08-06T05:14:46.349Z,101965.41
2022-08-06T05:17:18.286Z,101968.32
2022-08-06T05:19:58.291Z,101965.66
2022-08-06T05:22:52.264Z,101967.79
2022-08-06T05:25:22.241Z,101972.27
2022-08-06T05:28:03.601Z,101977.02
2022-08-06T05:30:49.985Z,101987.98
2022-08-06T05:33:29.699Z,101994.76
2022-08-06T05:36:02.397Z,101996.83
2022-08-06T05:38:37.098Z,101997.38
2022-08-06T05:41:11.109Z,101993.84
2022-08-06T05:43:58.908Z,101995.98
2022-08-06T05:46:35.234Z,101996.81
2022-08-06T05:49:54.681Z,102003.23
2022-08-06T05:52:49.694Z,102008.83
2022-08-06T05:55:38.661Z,102012.88
2022-08-06T05:58:15.264Z,102015.30
2022-08-06T06:00:46.967Z,102011.84
2022-08-06T06:03:23.865Z,102016.23
2022-08-06T06:06:06.853Z,102023.17
2022-08-06T06:08:55.535Z,102026.14
2022-08-06T06:11:47.290Z,102026.63
2022-08-06T06:14:32.731Z,102021.69
2022-08-06T06:17:50.023Z,102024.50
2022-08-06T06:21:03.139Z,102025.98
2022-08-06T06:23:55.010Z,102022.81
2022-08-06T06:26:49.806Z,102024.67
2022-08-06T06:30:05.011Z,102023.30
2022-08-06T06:32:42.597Z,102021.69
2022-08-06T06:35:42.860Z,102027.92
2022-08-06T06:38:44.310Z,102035.91
2022-08-06T06:41:31.580Z,102037.84
2022-08-06T06:45:03.350Z,102040.84
2022-08-06T06:47:36.545Z,102044.78
2022-08-06T06:50:20.345Z,102050.11
2022-08-06T06:52:52.134Z,102045.27
2022-08-06T06:55:55.736Z,102042.91
2022-08-06T06:58:59.815Z,102048.21
2022-08-06T07:01:33.337Z,102049.30
2022-08-06T07:04:06.269Z,102052.45
2022-08-06T07:06:44.636Z,102045.98
2022-08-06T07:09:41.646Z,102040.91
2022-08-06T07:12:20.134Z,102048.96
2022-08-06T07:15:01.097Z,102051.11
2022-08-06T07:17:58.941Z,102053.72
2022-08-06T07:20:29.219Z,102051.38
2022-08-06T07:24:04.622Z,102049.92
2022-08-06T07:25:54.530Z,102051.24
2022-08-06T07:28:29.645Z,102056.55
2022-08-06T07:31:04.383Z,102054.55
2022-08-06T07:34:00.127Z,102062.88
2022-08-06T07:36:38.061Z,102060.73
2022-08-06T07:39:12.447Z,102062.48
2022-08-06T07:42:07.785Z,102063.41
2022-08-06T07:44:54.652Z,102065.25
2022-08-06T07:47:54.356Z,102065.06
2022-08-06T07:50:25.381Z,102065.41
2022-08-06T07:52:56.963Z,102063.05
2022-08-06T07:55:36.752Z,102062.86
2022-08-06T07:58:09.662Z,102065.92
2022-08-06T08:00:39.120Z,102068.05
2022-08-06T08:03:43.543Z,102071.21
2022-08-06T08:06:21.195Z,102066.94
2022-08-06T08:08:54.700Z,102076.80
2022-08-06T08:11:38.175Z,102073.17
2022-08-06T08:14:19.012Z,102069.66
2022-08-06T08:16:48.923Z,102077.00
2022-08-06T08:19:42.791Z,102079.45
2022-08-06T08:22:18.838Z,102084.81
2022-08-06T08:24:53.842Z,102086.45
2022-08-06T08:27:23.770Z,102084.97
2022-08-06T08:30:05.422Z,102087.33
2022-08-06T08:32:32.650Z,102081.75
2022-08-06T08:35:00.688Z,102079.05
2022-08-06T08:37:32.351Z,102081.55
2022-08-06T08:40:00.250Z,102082.00
2022-08-06T08:42:49.325Z,102079.23
2022-08-06T08:45:23.297Z,102082.77
2022-08-06T08:48:06.017Z,102080.43
2022-08-06T08:50:35.574Z,102086.99
2022-08-06T08:53:12.968Z,102084.88
2022-08-06T08:57:10.695Z,102082.73
2022-08-06T08:58:39.622Z,102085.38
2022-08-06T09:01:51.115Z,102082.51
2022-08-06T09:04:02.482Z,102082.54
2022-08-06T09:06:30.512Z,102079.48
2022-08-06T09:09:04.807Z,102083.87
2022-08-06T09:12:05.548Z,102084.56
2022-08-06T09:14:28.260Z,102082.66
2022-08-06T09:17:04.043Z,102083.98
2022-08-06T09:19:37.776Z,102085.12
2022-08-06T09:22:08.888Z,102089.07
2022-08-06T09:24:39.601Z,102089.27
2022-08-06T09:27:47.258Z,102094.81
2022-08-06T09:30:11.740Z,102096.77
2022-08-06T09:32:54.975Z,102092.56
2022-08-06T09:35:44.850Z,102092.88
2022-08-06T09:38:16.531Z,102089.64
2022-08-06T09:41:15.455Z,102093.69
2022-08-06T09:44:03.561Z,102099.42
2022-08-06T09:46:39.068Z,102098.57
2022-08-06T09:49:45.457Z,102097.12
2022-08-06T09:52:19.691Z,102100.09
2022-08-06T09:54:52.702Z,102092.42
2022-08-06T09:57:36.325Z,102094.21
2022-08-06T10:00:14.698Z,102091.10
2022-08-06T10:02:50.794Z,102091.41
2022-08-06T10:05:20.378Z,102094.46
2022-08-06T10:08:02.005Z,102091.96
2022-08-06T10:10:52.672Z,102093.55
2022-08-06T10:13:39.227Z,102093.07
2022-08-06T10:16:29.030Z,102098.24
2022-08-06T10:18:59.991Z,102095.21
2022-08-06T10:21:42.484Z,102097.52
2022-08-06T10:24:25.822Z,102098.95
2022-08-06T10:27:14.257Z,102096.57
2022-08-06T10:30:02.272Z,102101.77
2022-08-06T10:32:45.002Z,102099.41
2022-08-06T10:35:16.734Z,102100.27
2022-08-06T10:37:53.128Z,102093.84
2022-08-06T10:40:30.650Z,102096.55
2022-08-06T10:43:03.354Z,102096.72
2022-08-06T10:45:48.950Z,102093.40
2022-08-06T10:49:00.985Z,102088.63
2022-08-06T10:51:08.828Z,102091.30
2022-08-06T10:54:00.991Z,102097.06
2022-08-06T10:56:38.881Z,102095.05
2022-08-06T10:59:18.202Z,102093.34
2022-08-06T11:02:20.119Z,102087.39
2022-08-06T11:05:21.181Z,102078.76
2022-08-06T11:08:23.482Z,102080.36
2022-08-06T11:11:41.990Z,102083.31
2022-08-06T11:14:18.435Z,102082.05
2022-08-06T11:16:57.504Z,102088.70
2022-08-06T11:19:46.990Z,102085.11
2022-08-06T11:22:43.283Z,102082.83
2022-08-06T11:26:07.211Z,102072.80
2022-08-06T11:28:33.826Z,102060.55
2022-08-06T11:31:12.094Z,102057.26
2022-08-06T11:33:48.610Z,102059.67
2022-08-06T11:36:42.419Z,102066.90
2022-08-06T11:39:34.645Z,102068.13
2022-08-06T11:42:48.182Z,102067.02
2022-08-06T11:46:20.019Z,102065.13
2022-08-06T11:48:12.781Z,102063.34
2022-08-06T11:50:53.951Z,102062.58
2022-08-06T11:53:52.255Z,102054.09
2022-08-06T11:56:19.985Z,102064.19
2022-08-06T11:59:16.119Z,102066.96
2022-08-06T12:01:48.383Z,102069.74
2022-08-06T12:04:36.810Z,102072.66
2022-08-06T12:07:29.527Z,102070.15
2022-08-06T12:10:06.948Z,102065.17
2022-08-06T12:12:51.921Z,102063.05
2022-08-06T12:15:59.280Z,102059.38
2022-08-06T12:18:20.746Z,102057.98
2022-08-06T12:20:57.712Z,102058.67
2022-08-06T12:23:53.801Z,102053.72
2022-08-06T12:26:15.016Z,102055.27
2022-08-06T12:28:43.910Z,102058.25
2022-08-06T12:31:35.836Z,102061.33
2022-08-06T12:33:59.282Z,102063.21
2022-08-06T12:36:34.960Z,102066.66
2022-08-06T12:39:13.713Z,102063.70
2022-08-06T12:41:47.446Z,102059.55
2022-08-06T12:44:20.271Z,102061.59
2022-08-06T12:47:15.113Z,102060.69
2022-08-06T12:49:43.963Z,102052.38
2022-08-06T12:52:30.257Z,102053.85
2022-08-06T12:54:57.173Z,102044.99
2022-08-06T12:57:58.892Z,102039.16
2022-08-06T13:00:16.616Z,102040.20
2022-08-06T13:02:46.322Z,102034.30
2022-08-06T13:05:15.566Z,102039.35
2022-08-06T13:07:50.823Z,102038.67
2022-08-06T13:10:34.199Z,102045.81
2022-08-06T13:14:14.362Z,102042.95
2022-08-06T13:16:06.868Z,102040.10
2022-08-06T13:18:47.521Z,102034.98
2022-08-06T13:21:27.041Z,102030.30
2022-08-06T13:24:12.754Z,102041.04
2022-08-06T13:26:52.905Z,102038.84
2022-08-06T13:30:35.202Z,102036.63
2022-08-06T13:32:27.322Z,102038.63
2022-08-06T13:35:04.252Z,102041.52
2022-08-06T13:37:57.506Z,102045.58
2022-08-06T13:40:47.075Z,102036.80
2022-08-06T13:43:40.015Z,102029.19
2022-08-06T13:46:16.957Z,102024.15
2022-08-06T13:48:52.634Z,102026.98
2022-08-06T13:51:27.602Z,102021.42
2022-08-06T13:53:58.631Z,102022.55
2022-08-06T13:56:29.174Z,102021.74
2022-08-06T13:59:01.424Z,102018.98
2022-08-06T14:01:44.685Z,102024.61
2022-08-06T14:04:15.540Z,102030.96
2022-08-06T14:06:46.904Z,102029.94
2022-08-06T14:09:19.351Z,102027.34
2022-08-06T14:12:00.591Z,102026.28
2022-08-06T14:14:29.917Z,102023.13
2022-08-06T14:17:00.411Z,102017.88
2022-08-06T14:20:17.573Z,102022.74
2022-08-06T14:22:18.207Z,102021.13
2022-08-06T14:24:52.833Z,102024.70
2022-08-06T14:27:25.816Z,102024.06
2022-08-06T14:30:25.890Z,102019.27
2022-08-06T14:32:47.743Z,102018.76
2022-08-06T14:35:17.447Z,102014.64
2022-08-06T14:37:50.513Z,102010.70
2022-08-06T14:40:41.293Z,102016.12
2022-08-06T14:43:55.164Z,102016.81
2022-08-06T14:46:25.973Z,102011.16
2022-08-06T14:48:57.641Z,102008.35
2022-08-06T14:51:37.522Z,102007.42
2022-08-06T14:54:15.698Z,102011.92
2022-08-06T14:56:45.428Z,102010.32
2022-08-06T14:59:22.553Z,102012.10
2022-08-06T15:01:51.708Z,102014.88
2022-08-06T15:04:24.717Z,102009.14
2022-08-06T15:06:57.415Z,102007.85
2022-08-06T15:10:05.789Z,102009.59
2022-08-06T15:12:24.854Z,102010.45
2022-08-06T15:15:09.119Z,102006.70
2022-08-06T15:18:05.610Z,102008.62
2022-08-06T15:20:27.211Z,102012.95
2022-08-06T15:22:55.745Z,102005.56
2022-08-06T15:26:00.358Z,102004.14
2022-08-06T15:28:11.453Z,102004.73
2022-08-06T15:30:39.347Z,102011.17
2022-08-06T15:33:11.413Z,102008.38
2022-08-06T15:35:43.690Z,102009.64
2022-08-06T15:38:27.067Z,102008.30
2022-08-06T15:40:55.102Z,102003.61
2022-08-06T15:43:25.767Z,102003.15
2022-08-06T15:45:57.995Z,102002.36
2022-08-06T15:48:30.586Z,102001.66
2022-08-06T15:51:27.482Z,101999.87
2022-08-06T15:53:54.021Z,102004.11
2022-08-06T15:56:33.899Z,102000.07
2022-08-06T15:59:11.948Z,101996.10
2022-08-06T16:01:52.476Z,101995.09
2022-08-06T16:04:35.522Z,101989.99
2022-08-06T16:07:06.642Z,101997.52
2022-08-06T16:10:00.474Z,101992.23
2022-08-06T16:12:25.631Z,101988.41
2022-08-06T16:14:56.054Z,101989.91
2022-08-06T16:17:33.741Z,101989.15
2022-08-06T16:20:20.766Z,101989.83
2022-08-06T16:22:52.488Z,101989.29
2022-08-06T16:25:23.109Z,101987.64
2022-08-06T16:27:51.937Z,101985.20
2022-08-06T16:30:21.161Z,101984.67
2022-08-06T16:32:50.114Z,101987.70
2022-08-06T16:35:21.923Z,101982.70
2022-08-06T16:37:52.966Z,101980.20
2022-08-06T16:40:24.929Z,101975.38
2022-08-06T16:42:53.857Z,101976.42
2022-08-06T16:45:23.096Z,101977.77
2022-08-06T16:48:04.371Z,101974.75
2022-08-06T16:50:43.148Z,101983.66
2022-08-06T16:54:14.525Z,101986.71
2022-08-06T16:56:00.094Z,101991.88
2022-08-06T17:02:15.150Z,101992.39
2022-08-06T17:04:03.125Z,101996.36
2022-08-06T17:06:34.223Z,101998.05
2022-08-06T17:12:00.603Z,101994.70
2022-08-06T17:14:32.740Z,101996.31
2022-08-06T17:20:01.142Z,101999.36
2022-08-06T17:22:30.805Z,101996.66
2022-08-06T17:24:58.806Z,101997.37
2022-08-06T17:30:16.842Z,101995.59
2022-08-06T17:32:47.400Z,101995.17
2022-08-06T17:35:16.414Z,101995.73
2022-08-06T17:37:50.246Z,102002.19
2022-08-06T17:40:32.100Z,102002.03
2022-08-06T17:43:12.607Z,102002.64
2022-08-06T17:45:52.516Z,102004.65
2022-08-06T17:48:26.964Z,102008.09
2022-08-06T17:50:57.760Z,102009.17
2022-08-06T17:53:25.942Z,102013.83
2022-08-06T17:56:12.742Z,102012.65
2022-08-06T17:59:17.688Z,102015.52
2022-08-06T18:01:49.133Z,102017.36
2022-08-06T18:04:22.407Z,102016.15
2022-08-06T18:07:01.233Z,102020.08
2022-08-06T18:10:11.115Z,102017.48
2022-08-06T18:12:27.974Z,102017.66
2022-08-06T18:14:56.139Z,102019.29
2022-08-06T18:17:47.615Z,102023.75
2022-08-06T18:20:11.477Z,102021.81
2022-08-06T18:22:42.535Z,102023.44
2022-08-06T18:25:15.244Z,102023.98
2022-08-06T18:27:55.497Z,102022.75
2022-08-06T18:30:30.280Z,102027.95
2022-08-06T18:33:12.746Z,102033.83
2022-08-06T18:35:56.108Z,102033.32
2022-08-06T18:38:31.415Z,102035.66
2022-08-06T18:41:05.854Z,102040.82
2022-08-06T18:43:49.938Z,102039.58
2022-08-06T18:46:56.945Z,102045.99
2022-08-06T18:49:26.681Z,102048.33
2022-08-06T18:52:00.827Z,102052.42
2022-08-06T18:54:27.967Z,102054.52
2022-08-06T18:56:57.483Z,102055.91
2022-08-06T18:59:29.759Z,102058.55
2022-08-06T19:02:00.509Z,102059.80
2022-08-06T19:04:29.903Z,102063.70
2022-08-06T19:07:00.135Z,102064.95
2022-08-06T19:09:35.238Z,102067.56
2022-08-06T19:12:20.475Z,102072.55
2022-08-06T19:14:50.197Z,102073.76
2022-08-06T19:17:47.823Z,102079.09
2022-08-06T19:20:19.979Z,102086.84
2022-08-06T19:22:53.465Z,102089.47
2022-08-06T19:25:22.886Z,102086.13
2022-08-06T19:28:30.780Z,102084.34
2022-08-06T19:30:46.073Z,102089.83
2022-08-06T19:33:16.293Z,102093.52
2022-08-06T19:36:06.748Z,102093.49
2022-08-06T19:38:33.765Z,102093.78
2022-08-06T19:41:02.429Z,102096.90
2022-08-06T19:44:26.468Z,102103.51
2022-08-06T19:46:30.711Z,102103.90
2022-08-06T19:49:04.562Z,102102.64
2022-08-06T19:52:02.369Z,102104.73
2022-08-06T19:54:26.278Z,102108.62
2022-08-06T19:57:08.451Z,102110.67
2022-08-06T20:00:52.993Z,102114.87
2022-08-06T20:02:26.438Z,102115.14
2022-08-06T20:04:55.705Z,102112.60
2022-08-06T20:07:27.955Z,102113.96
2022-08-06T20:10:01.338Z,102117.36
2022-08-06T20:12:40.792Z,102116.51
2022-08-06T20:15:17.621Z,102119.69
2022-08-06T20:17:54.109Z,102120.94
2022-08-06T20:20:29.141Z,102128.06
2022-08-06T20:23:08.439Z,102130.14
2022-08-06T20:26:34.302Z,102128.16
2022-08-06T20:29:08.729Z,102126.09
2022-08-06T20:31:22.204Z,102130.10
2022-08-06T20:33:59.309Z,102131.47
2022-08-06T20:36:31.921Z,102136.30
2022-08-06T20:39:01.001Z,102138.20
2022-08-06T20:42:03.338Z,102139.91
2022-08-06T20:44:19.658Z,102140.06
2022-08-06T20:47:01.571Z,102143.64
2022-08-06T20:50:03.465Z,102147.48
2022-08-06T20:52:24.800Z,102150.17
2022-08-06T20:54:55.388Z,102153.36
2022-08-06T20:57:27.896Z,102150.42
2022-08-06T20:59:58.093Z,102148.20
2022-08-06T21:02:31.882Z,102143.66
2022-08-06T21:05:16.037Z,102148.02
2022-08-06T21:07:57.638Z,102148.34
2022-08-06T21:10:30.345Z,102149.46
2022-08-06T21:13:06.536Z,102148.20
2022-08-06T21:15:54.468Z,102150.17
2022-08-06T21:18:24.239Z,102153.39
2022-08-06T21:20:53.730Z,102149.40
2022-08-06T21:23:42.054Z,102152.21
2022-08-06T21:26:15.465Z,102154.14
2022-08-06T21:28:54.366Z,102158.64
2022-08-06T21:31:24.363Z,102159.87
2022-08-06T21:33:54.728Z,102158.77
2022-08-06T21:36:25.821Z,102162.27
2022-08-06T21:38:59.010Z,102152.86
2022-08-06T21:41:38.520Z,102157.38
2022-08-06T21:44:17.546Z,102156.71
2022-08-06T21:46:50.055Z,102158.98
2022-08-06T21:49:58.776Z,102164.57
2022-08-06T21:52:12.008Z,102158.06
2022-08-06T21:54:43.589Z,102160.40
2022-08-06T21:57:12.374Z,102158.59
2022-08-06T21:59:46.335Z,102156.80
2022-08-06T22:02:26.357Z,102159.86
2022-08-06T22:05:00.129Z,102160.86
2022-08-06T22:08:07.022Z,102160.64
2022-08-06T22:10:28.943Z,102166.66
2022-08-06T22:13:15.866Z,102167.21
2022-08-06T22:15:47.010Z,102169.58
2022-08-06T22:18:18.872Z,102171.38
2022-08-06T22:20:56.066Z,102171.02
2022-08-06T22:23:25.469Z,102169.61
2022-08-06T22:25:57.404Z,102168.58
2022-08-06T22:28:34.211Z,102171.90
2022-08-06T22:31:08.749Z,102168.61
2022-08-06T22:33:58.180Z,102171.05
2022-08-06T22:36:34.054Z,102174.98
2022-08-06T22:39:03.170Z,102170.38
2022-08-06T22:42:04.802Z,102176.11
2022-08-06T22:44:31.021Z,102175.42
2022-08-06T22:47:05.813Z,102174.59
2022-08-06T22:50:00.438Z,102174.55
2022-08-06T22:52:39.152Z,102174.57
2022-08-06T22:55:11.654Z,102176.09
2022-08-06T22:58:05.010Z,102166.52
2022-08-06T23:00:36.557Z,102165.59
2022-08-06T23:03:13.366Z,102166.24
2022-08-06T23:05:46.668Z,102164.80
2022-08-06T23:08:15.718Z,102164.24
2022-08-06T23:10:48.282Z,102161.81
2022-08-06T23:13:23.952Z,102160.39
2022-08-06T23:15:58.586Z,102160.67
2022-08-06T23:18:30.337Z,102161.30
2022-08-06T23:21:20.260Z,102161.83
2022-08-06T23:23:54.822Z,102163.05
2022-08-06T23:26:31.963Z,102157.48
2022-08-06T23:29:04.086Z,102161.95
2022-08-06T23:31:34.018Z,102161.20
2022-08-06T23:34:33.514Z,102165.30
2022-08-06T23:36:57.136Z,102164.66
2022-08-06T23:39:29.101Z,102161.20
2022-08-06T23:42:22.389Z,102161.50
2022-08-06T23:44:51.497Z,102164.80
2022-08-06T23:47:54.149Z,102162.05
2022-08-06T23:50:10.132Z,102161.34
2022-08-06T23:52:42.143Z,102163.12
2022-08-06T23:55:26.031Z,102158.91
2022-08-06T23:58:00.230Z,102156.66
